sensor_id;sensor_type;location;lat;lon;timestamp;P1;durP1;ratioP1;P2;durP2;ratioP2
64678;SDS011;51094;53.864;27.676;2024-02-21T00:01:33;2.35;;;2.35;;
64678;SDS011;51094;53.864;27.676;2024-02-21T00:04:00;2.47;;;2.47;;
64678;SDS011;51094;53.864;27.676;2024-02-21T00:06:30;2.50;;;2.50;;
64678;SDS011;51094;53.864;27.676;2024-02-21T00:08:59;2.55;;;2.55;;
64678;SDS011;51094;53.864;27.676;2024-02-21T00:11:26;2.40;;;2.40;;
64678;SDS011;51094;53.864;27.676;2024-02-21T00:13:58;2.38;;;2.38;;
64678;SDS011;51094;53.864;27.676;2024-02-21T00:16:25;2.30;;;2.30;;
64678;SDS011;51094;53.864;27.676;2024-02-21T00:18:52;2.60;;;2.60;;
64678;SDS011;51094;53.864;27.676;2024-02-21T00:21:22;2.60;;;2.60;;
64678;SDS011;51094;53.864;27.676;2024-02-21T00:23:52;2.70;;;2.70;;
64678;SDS011;51094;53.864;27.676;2024-02-21T00:26:19;2.67;;;2.67;;
64678;SDS011;51094;53.864;27.676;2024-02-21T00:28:46;2.80;;;2.80;;
64678;SDS011;51094;53.864;27.676;2024-02-21T00:31:14;2.65;;;2.65;;
64678;SDS011;51094;53.864;27.676;2024-02-21T00:33:46;2.67;;;2.67;;
64678;SDS011;51094;53.864;27.676;2024-02-21T00:36:13;2.70;;;2.70;;
64678;SDS011;51094;53.864;27.676;2024-02-21T00:38:44;2.85;;;2.85;;
64678;SDS011;51094;53.864;27.676;2024-02-21T00:41:13;3.03;;;3.03;;
64678;SDS011;51094;53.864;27.676;2024-02-21T00:43:41;2.88;;;2.88;;
64678;SDS011;51094;53.864;27.676;2024-02-21T00:46:11;3.20;;;3.20;;
64678;SDS011;51094;53.864;27.676;2024-02-21T00:48:38;3.00;;;3.00;;
64678;SDS011;51094;53.864;27.676;2024-02-21T00:51:05;3.10;;;3.10;;
64678;SDS011;51094;53.864;27.676;2024-02-21T00:53:35;3.05;;;3.05;;
64678;SDS011;51094;53.864;27.676;2024-02-21T00:56:09;3.25;;;3.25;;
64678;SDS011;51094;53.864;27.676;2024-02-21T00:58:36;3.63;;;3.63;;
64678;SDS011;51094;53.864;27.676;2024-02-21T01:01:04;3.63;;;3.63;;
64678;SDS011;51094;53.864;27.676;2024-02-21T01:03:32;3.53;;;3.53;;
64678;SDS011;51094;53.864;27.676;2024-02-21T01:05:59;3.45;;;3.45;;
64678;SDS011;51094;53.864;27.676;2024-02-21T01:08:26;3.67;;;3.67;;
64678;SDS011;51094;53.864;27.676;2024-02-21T01:10:53;3.40;;;3.40;;
64678;SDS011;51094;53.864;27.676;2024-02-21T01:13:20;3.60;;;3.60;;
64678;SDS011;51094;53.864;27.676;2024-02-21T01:15:47;3.65;;;3.65;;
64678;SDS011;51094;53.864;27.676;2024-02-21T01:18:14;3.40;;;3.40;;
64678;SDS011;51094;53.864;27.676;2024-02-21T01:20:44;3.42;;;3.42;;
64678;SDS011;51094;53.864;27.676;2024-02-21T01:23:16;4.22;;;4.13;;
64678;SDS011;51094;53.864;27.676;2024-02-21T01:25:46;4.00;;;4.00;;
64678;SDS011;51094;53.864;27.676;2024-02-21T01:28:14;4.07;;;4.07;;
64678;SDS011;51094;53.864;27.676;2024-02-21T01:30:44;3.58;;;3.58;;
64678;SDS011;51094;53.864;27.676;2024-02-21T01:33:14;3.95;;;3.90;;
64678;SDS011;51094;53.864;27.676;2024-02-21T01:35:41;3.70;;;3.70;;
64678;SDS011;51094;53.864;27.676;2024-02-21T01:38:09;3.53;;;3.53;;
64678;SDS011;51094;53.864;27.676;2024-02-21T01:40:37;3.60;;;3.60;;
64678;SDS011;51094;53.864;27.676;2024-02-21T01:43:14;3.75;;;3.75;;
64678;SDS011;51094;53.864;27.676;2024-02-21T01:45:43;3.38;;;3.38;;
64678;SDS011;51094;53.864;27.676;2024-02-21T01:48:19;3.47;;;3.47;;
64678;SDS011;51094;53.864;27.676;2024-02-21T01:50:52;3.40;;;3.40;;
64678;SDS011;51094;53.864;27.676;2024-02-21T01:53:22;3.70;;;3.70;;
64678;SDS011;51094;53.864;27.676;2024-02-21T01:55:52;3.60;;;3.60;;
64678;SDS011;51094;53.864;27.676;2024-02-21T01:58:19;3.65;;;3.65;;
64678;SDS011;51094;53.864;27.676;2024-02-21T02:00:47;4.05;;;3.95;;
64678;SDS011;51094;53.864;27.676;2024-02-21T02:03:17;3.88;;;3.88;;
64678;SDS011;51094;53.864;27.676;2024-02-21T02:05:45;3.70;;;3.70;;
64678;SDS011;51094;53.864;27.676;2024-02-21T02:08:14;3.47;;;3.47;;
64678;SDS011;51094;53.864;27.676;2024-02-21T02:10:45;4.20;;;4.20;;
64678;SDS011;51094;53.864;27.676;2024-02-21T02:13:12;4.68;;;4.57;;
64678;SDS011;51094;53.864;27.676;2024-02-21T02:15:49;3.65;;;3.65;;
64678;SDS011;51094;53.864;27.676;2024-02-21T02:18:17;4.40;;;4.30;;
64678;SDS011;51094;53.864;27.676;2024-02-21T02:20:46;4.35;;;4.25;;
64678;SDS011;51094;53.864;27.676;2024-02-21T02:23:24;3.95;;;3.95;;
64678;SDS011;51094;53.864;27.676;2024-02-21T02:25:52;4.13;;;4.13;;
64678;SDS011;51094;53.864;27.676;2024-02-21T02:28:20;4.45;;;4.43;;
64678;SDS011;51094;53.864;27.676;2024-02-21T02:30:48;4.70;;;4.60;;
64678;SDS011;51094;53.864;27.676;2024-02-21T02:33:16;4.72;;;4.63;;
64678;SDS011;51094;53.864;27.676;2024-02-21T02:35:49;4.97;;;4.88;;
64678;SDS011;51094;53.864;27.676;2024-02-21T02:38:16;4.68;;;4.57;;
64678;SDS011;51094;53.864;27.676;2024-02-21T02:40:43;4.50;;;4.40;;
64678;SDS011;51094;53.864;27.676;2024-02-21T02:43:12;4.50;;;4.40;;
64678;SDS011;51094;53.864;27.676;2024-02-21T02:45:39;4.65;;;4.55;;
64678;SDS011;51094;53.864;27.676;2024-02-21T02:48:06;4.80;;;4.70;;
64678;SDS011;51094;53.864;27.676;2024-02-21T02:50:37;4.95;;;4.85;;
64678;SDS011;51094;53.864;27.676;2024-02-21T02:53:04;5.28;;;5.18;;
64678;SDS011;51094;53.864;27.676;2024-02-21T02:55:31;5.10;;;5.00;;
64678;SDS011;51094;53.864;27.676;2024-02-21T02:57:58;4.70;;;4.60;;
64678;SDS011;51094;53.864;27.676;2024-02-21T03:00:28;5.00;;;4.90;;
64678;SDS011;51094;53.864;27.676;2024-02-21T03:02:55;5.00;;;4.90;;
64678;SDS011;51094;53.864;27.676;2024-02-21T03:05:22;4.93;;;4.82;;
64678;SDS011;51094;53.864;27.676;2024-02-21T03:07:50;4.90;;;4.80;;
64678;SDS011;51094;53.864;27.676;2024-02-21T03:10:17;5.20;;;5.10;;
64678;SDS011;51094;53.864;27.676;2024-02-21T03:12:45;5.20;;;5.10;;
64678;SDS011;51094;53.864;27.676;2024-02-21T03:15:13;4.93;;;4.82;;
64678;SDS011;51094;53.864;27.676;2024-02-21T03:17:41;4.85;;;4.75;;
64678;SDS011;51094;53.864;27.676;2024-02-21T03:20:08;5.10;;;5.00;;
64678;SDS011;51094;53.864;27.676;2024-02-21T03:22:39;5.55;;;5.45;;
64678;SDS011;51094;53.864;27.676;2024-02-21T03:25:07;5.10;;;5.00;;
64678;SDS011;51094;53.864;27.676;2024-02-21T03:27:38;5.18;;;5.07;;
64678;SDS011;51094;53.864;27.676;2024-02-21T03:30:08;5.03;;;4.93;;
64678;SDS011;51094;53.864;27.676;2024-02-21T03:35:02;4.63;;;4.53;;
64678;SDS011;51094;53.864;27.676;2024-02-21T03:37:30;5.13;;;5.03;;
64678;SDS011;51094;53.864;27.676;2024-02-21T03:39:57;4.57;;;4.47;;
64678;SDS011;51094;53.864;27.676;2024-02-21T03:42:28;4.82;;;4.72;;
64678;SDS011;51094;53.864;27.676;2024-02-21T03:44:56;4.68;;;4.57;;
64678;SDS011;51094;53.864;27.676;2024-02-21T03:47:23;4.60;;;4.50;;
64678;SDS011;51094;53.864;27.676;2024-02-21T03:49:53;5.00;;;4.90;;
64678;SDS011;51094;53.864;27.676;2024-02-21T03:52:22;4.90;;;4.80;;
64678;SDS011;51094;53.864;27.676;2024-02-21T03:54:49;5.00;;;4.90;;
64678;SDS011;51094;53.864;27.676;2024-02-21T03:57:21;5.10;;;5.00;;
64678;SDS011;51094;53.864;27.676;2024-02-21T03:59:51;4.97;;;4.88;;
64678;SDS011;51094;53.864;27.676;2024-02-21T04:02:19;4.82;;;4.72;;
64678;SDS011;51094;53.864;27.676;2024-02-21T04:04:46;5.22;;;5.13;;
64678;SDS011;51094;53.864;27.676;2024-02-21T04:07:14;5.35;;;5.25;;
64678;SDS011;51094;53.864;27.676;2024-02-21T04:09:42;5.00;;;4.90;;
64678;SDS011;51094;53.864;27.676;2024-02-21T04:12:09;4.72;;;4.63;;
64678;SDS011;51094;53.864;27.676;2024-02-21T04:14:36;8.95;;;8.75;;
64678;SDS011;51094;53.864;27.676;2024-02-21T04:17:03;5.93;;;5.82;;
64678;SDS011;51094;53.864;27.676;2024-02-21T04:19:32;5.75;;;5.65;;
64678;SDS011;51094;53.864;27.676;2024-02-21T04:22:02;5.45;;;5.35;;
64678;SDS011;51094;53.864;27.676;2024-02-21T04:24:29;5.70;;;5.60;;
64678;SDS011;51094;53.864;27.676;2024-02-21T04:26:56;5.47;;;5.38;;
64678;SDS011;51094;53.864;27.676;2024-02-21T04:29:23;6.05;;;5.95;;
64678;SDS011;51094;53.864;27.676;2024-02-21T04:31:50;5.93;;;5.82;;
64678;SDS011;51094;53.864;27.676;2024-02-21T04:34:17;5.97;;;5.88;;
64678;SDS011;51094;53.864;27.676;2024-02-21T04:36:44;5.95;;;5.85;;
64678;SDS011;51094;53.864;27.676;2024-02-21T04:39:12;6.22;;;6.13;;
64678;SDS011;51094;53.864;27.676;2024-02-21T04:41:39;6.57;;;6.38;;
64678;SDS011;51094;53.864;27.676;2024-02-21T04:44:06;5.88;;;5.78;;
64678;SDS011;51094;53.864;27.676;2024-02-21T04:46:33;6.38;;;6.28;;
64678;SDS011;51094;53.864;27.676;2024-02-21T04:49:00;6.97;;;6.78;;
64678;SDS011;51094;53.864;27.676;2024-02-21T04:51:27;6.50;;;6.40;;
64678;SDS011;51094;53.864;27.676;2024-02-21T04:53:54;6.20;;;6.10;;
64678;SDS011;51094;53.864;27.676;2024-02-21T04:56:21;6.07;;;5.97;;
64678;SDS011;51094;53.864;27.676;2024-02-21T04:58:48;6.25;;;6.15;;
64678;SDS011;51094;53.864;27.676;2024-02-21T05:01:23;6.28;;;6.18;;
64678;SDS011;51094;53.864;27.676;2024-02-21T05:03:52;6.20;;;6.10;;
64678;SDS011;51094;53.864;27.676;2024-02-21T05:06:21;6.00;;;5.90;;
64678;SDS011;51094;53.864;27.676;2024-02-21T05:08:56;6.13;;;6.03;;
64678;SDS011;51094;53.864;27.676;2024-02-21T05:11:34;6.50;;;6.30;;
64678;SDS011;51094;53.864;27.676;2024-02-21T05:14:11;6.68;;;6.47;;
64678;SDS011;51094;53.864;27.676;2024-02-21T05:16:46;7.18;;;6.97;;
64678;SDS011;51094;53.864;27.676;2024-02-21T05:19:18;6.63;;;6.43;;
64678;SDS011;51094;53.864;27.676;2024-02-21T05:21:54;6.35;;;6.15;;
64678;SDS011;51094;53.864;27.676;2024-02-21T05:24:33;6.65;;;6.45;;
64678;SDS011;51094;53.864;27.676;2024-02-21T05:27:10;6.75;;;6.55;;
64678;SDS011;51094;53.864;27.676;2024-02-21T05:29:40;6.15;;;6.05;;
64678;SDS011;51094;53.864;27.676;2024-02-21T05:32:09;6.80;;;6.60;;
64678;SDS011;51094;53.864;27.676;2024-02-21T05:34:41;6.97;;;6.78;;
64678;SDS011;51094;53.864;27.676;2024-02-21T05:37:16;7.13;;;6.93;;
64678;SDS011;51094;53.864;27.676;2024-02-21T05:39:52;6.43;;;6.32;;
64678;SDS011;51094;53.864;27.676;2024-02-21T05:42:20;6.90;;;6.70;;
64678;SDS011;51094;53.864;27.676;2024-02-21T05:44:47;7.05;;;6.85;;
64678;SDS011;51094;53.864;27.676;2024-02-21T05:47:19;6.70;;;6.50;;
64678;SDS011;51094;53.864;27.676;2024-02-21T05:49:47;6.45;;;6.35;;
64678;SDS011;51094;53.864;27.676;2024-02-21T05:52:15;6.25;;;6.15;;
64678;SDS011;51094;53.864;27.676;2024-02-21T05:54:44;6.38;;;6.18;;
64678;SDS011;51094;53.864;27.676;2024-02-21T05:57:14;5.45;;;5.35;;
64678;SDS011;51094;53.864;27.676;2024-02-21T05:59:46;6.05;;;5.95;;
64678;SDS011;51094;53.864;27.676;2024-02-21T06:02:16;6.20;;;6.00;;
64678;SDS011;51094;53.864;27.676;2024-02-21T06:04:43;6.07;;;5.93;;
64678;SDS011;51094;53.864;27.676;2024-02-21T06:07:11;5.45;;;5.35;;
64678;SDS011;51094;53.864;27.676;2024-02-21T06:09:38;5.50;;;5.40;;
64678;SDS011;51094;53.864;27.676;2024-02-21T06:12:08;5.80;;;5.70;;
64678;SDS011;51094;53.864;27.676;2024-02-21T06:14:37;5.05;;;4.95;;
64678;SDS011;51094;53.864;27.676;2024-02-21T06:17:08;5.45;;;5.35;;
64678;SDS011;51094;53.864;27.676;2024-02-21T06:19:35;5.38;;;5.28;;
64678;SDS011;51094;53.864;27.676;2024-02-21T06:22:08;5.13;;;5.03;;
64678;SDS011;51094;53.864;27.676;2024-02-21T06:24:36;5.22;;;5.13;;
64678;SDS011;51094;53.864;27.676;2024-02-21T06:27:12;4.88;;;4.78;;
64678;SDS011;51094;53.864;27.676;2024-02-21T06:29:41;5.05;;;4.95;;
64678;SDS011;51094;53.864;27.676;2024-02-21T06:32:08;5.07;;;4.97;;
64678;SDS011;51094;53.864;27.676;2024-02-21T06:34:36;4.93;;;4.82;;
64678;SDS011;51094;53.864;27.676;2024-02-21T06:37:11;5.03;;;4.93;;
64678;SDS011;51094;53.864;27.676;2024-02-21T06:39:42;5.03;;;4.93;;
64678;SDS011;51094;53.864;27.676;2024-02-21T06:42:12;4.78;;;4.68;;
64678;SDS011;51094;53.864;27.676;2024-02-21T06:44:41;5.03;;;4.93;;
64678;SDS011;51094;53.864;27.676;2024-02-21T06:47:08;5.35;;;5.25;;
64678;SDS011;51094;53.864;27.676;2024-02-21T06:49:41;5.25;;;5.15;;
64678;SDS011;51094;53.864;27.676;2024-02-21T06:52:17;5.25;;;5.15;;
64678;SDS011;51094;53.864;27.676;2024-02-21T06:54:47;5.10;;;5.00;;
64678;SDS011;51094;53.864;27.676;2024-02-21T06:57:14;5.00;;;4.90;;
64678;SDS011;51094;53.864;27.676;2024-02-21T06:59:42;4.93;;;4.82;;
64678;SDS011;51094;53.864;27.676;2024-02-21T07:02:09;4.47;;;4.38;;
64678;SDS011;51094;53.864;27.676;2024-02-21T07:04:36;4.45;;;4.35;;
64678;SDS011;51094;53.864;27.676;2024-02-21T07:07:03;4.43;;;4.32;;
64678;SDS011;51094;53.864;27.676;2024-02-21T07:09:49;4.50;;;4.40;;
64678;SDS011;51094;53.864;27.676;2024-02-21T07:12:16;4.22;;;4.13;;
64678;SDS011;51094;53.864;27.676;2024-02-21T07:14:44;4.60;;;4.50;;
64678;SDS011;51094;53.864;27.676;2024-02-21T07:17:13;4.43;;;4.32;;
64678;SDS011;51094;53.864;27.676;2024-02-21T07:19:43;4.55;;;4.45;;
64678;SDS011;51094;53.864;27.676;2024-02-21T07:22:10;4.60;;;4.50;;
64678;SDS011;51094;53.864;27.676;2024-02-21T07:24:37;4.55;;;4.45;;
64678;SDS011;51094;53.864;27.676;2024-02-21T07:27:04;4.75;;;4.65;;
64678;SDS011;51094;53.864;27.676;2024-02-21T07:29:33;4.50;;;4.40;;
64678;SDS011;51094;53.864;27.676;2024-02-21T07:32:05;5.15;;;5.05;;
64678;SDS011;51094;53.864;27.676;2024-02-21T07:34:32;5.13;;;5.03;;
64678;SDS011;51094;53.864;27.676;2024-02-21T07:36:59;5.38;;;5.28;;
64678;SDS011;51094;53.864;27.676;2024-02-21T07:39:26;4.90;;;4.80;;
64678;SDS011;51094;53.864;27.676;2024-02-21T07:42:01;5.10;;;5.00;;
64678;SDS011;51094;53.864;27.676;2024-02-21T07:44:31;5.32;;;5.22;;
64678;SDS011;51094;53.864;27.676;2024-02-21T07:47:01;5.03;;;4.93;;
64678;SDS011;51094;53.864;27.676;2024-02-21T07:49:43;5.00;;;4.90;;
64678;SDS011;51094;53.864;27.676;2024-02-21T07:52:16;4.72;;;4.63;;
64678;SDS011;51094;53.864;27.676;2024-02-21T07:54:43;4.00;;;3.90;;
64678;SDS011;51094;53.864;27.676;2024-02-21T07:57:20;3.92;;;3.83;;
64678;SDS011;51094;53.864;27.676;2024-02-21T07:59:47;4.10;;;4.00;;
64678;SDS011;51094;53.864;27.676;2024-02-21T08:02:18;4.07;;;3.97;;
64678;SDS011;51094;53.864;27.676;2024-02-21T08:04:47;4.30;;;4.20;;
64678;SDS011;51094;53.864;27.676;2024-02-21T08:07:16;3.90;;;3.80;;
64678;SDS011;51094;53.864;27.676;2024-02-21T08:09:48;4.38;;;4.28;;
64678;SDS011;51094;53.864;27.676;2024-02-21T08:12:24;4.22;;;4.13;;
64678;SDS011;51094;53.864;27.676;2024-02-21T08:14:51;4.03;;;3.92;;
64678;SDS011;51094;53.864;27.676;2024-02-21T08:17:20;4.25;;;4.15;;
64678;SDS011;51094;53.864;27.676;2024-02-21T08:19:48;4.20;;;4.10;;
64678;SDS011;51094;53.864;27.676;2024-02-21T08:22:16;4.10;;;4.00;;
64678;SDS011;51094;53.864;27.676;2024-02-21T08:24:43;3.92;;;3.83;;
64678;SDS011;51094;53.864;27.676;2024-02-21T08:27:10;4.00;;;3.90;;
64678;SDS011;51094;53.864;27.676;2024-02-21T08:29:37;4.70;;;4.60;;
64678;SDS011;51094;53.864;27.676;2024-02-21T08:32:07;4.40;;;4.30;;
64678;SDS011;51094;53.864;27.676;2024-02-21T08:34:34;4.20;;;4.10;;
64678;SDS011;51094;53.864;27.676;2024-02-21T08:37:01;5.43;;;5.32;;
64678;SDS011;51094;53.864;27.676;2024-02-21T08:39:28;6.53;;;6.35;;
64678;SDS011;51094;53.864;27.676;2024-02-21T08:41:57;5.07;;;4.97;;
64678;SDS011;51094;53.864;27.676;2024-02-21T08:44:24;6.57;;;6.47;;
64678;SDS011;51094;53.864;27.676;2024-02-21T08:46:54;9.98;;;9.68;;
64678;SDS011;51094;53.864;27.676;2024-02-21T08:49:23;7.70;;;7.50;;
64678;SDS011;51094;53.864;27.676;2024-02-21T08:51:57;7.47;;;7.28;;
64678;SDS011;51094;53.864;27.676;2024-02-21T08:54:24;5.93;;;5.82;;
64678;SDS011;51094;53.864;27.676;2024-02-21T08:56:51;5.72;;;5.63;;
64678;SDS011;51094;53.864;27.676;2024-02-21T08:59:20;6.25;;;6.15;;
64678;SDS011;51094;53.864;27.676;2024-02-21T09:01:51;5.53;;;5.43;;
64678;SDS011;51094;53.864;27.676;2024-02-21T09:04:21;4.90;;;4.80;;
64678;SDS011;51094;53.864;27.676;2024-02-21T09:06:51;4.90;;;4.80;;
64678;SDS011;51094;53.864;27.676;2024-02-21T09:09:19;4.90;;;4.80;;
64678;SDS011;51094;53.864;27.676;2024-02-21T09:11:46;5.10;;;5.00;;
64678;SDS011;51094;53.864;27.676;2024-02-21T09:14:13;5.18;;;5.07;;
64678;SDS011;51094;53.864;27.676;2024-02-21T09:16:43;5.00;;;4.90;;
64678;SDS011;51094;53.864;27.676;2024-02-21T09:19:11;4.80;;;4.70;;
64678;SDS011;51094;53.864;27.676;2024-02-21T09:21:38;4.85;;;4.75;;
64678;SDS011;51094;53.864;27.676;2024-02-21T09:24:05;4.80;;;4.70;;
64678;SDS011;51094;53.864;27.676;2024-02-21T09:26:32;5.05;;;4.95;;
64678;SDS011;51094;53.864;27.676;2024-02-21T09:29:02;4.75;;;4.65;;
64678;SDS011;51094;53.864;27.676;2024-02-21T09:31:30;4.63;;;4.53;;
64678;SDS011;51094;53.864;27.676;2024-02-21T09:33:57;4.50;;;4.40;;
64678;SDS011;51094;53.864;27.676;2024-02-21T09:36:27;4.93;;;4.82;;
64678;SDS011;51094;53.864;27.676;2024-02-21T09:38:54;4.50;;;4.40;;
64678;SDS011;51094;53.864;27.676;2024-02-21T09:41:30;5.10;;;5.00;;
64678;SDS011;51094;53.864;27.676;2024-02-21T09:44:10;5.10;;;5.00;;
64678;SDS011;51094;53.864;27.676;2024-02-21T09:46:52;4.57;;;4.47;;
64678;SDS011;51094;53.864;27.676;2024-02-21T09:49:33;4.80;;;4.70;;
64678;SDS011;51094;53.864;27.676;2024-02-21T09:52:05;4.82;;;4.72;;
64678;SDS011;51094;53.864;27.676;2024-02-21T09:54:33;4.90;;;4.80;;
64678;SDS011;51094;53.864;27.676;2024-02-21T09:57:01;5.13;;;5.03;;
64678;SDS011;51094;53.864;27.676;2024-02-21T09:59:37;5.10;;;5.00;;
64678;SDS011;51094;53.864;27.676;2024-02-21T10:02:04;5.05;;;4.95;;
64678;SDS011;51094;53.864;27.676;2024-02-21T10:04:33;5.47;;;5.38;;
64678;SDS011;51094;53.864;27.676;2024-02-21T10:07:00;5.20;;;5.10;;
64678;SDS011;51094;53.864;27.676;2024-02-21T10:09:28;5.53;;;5.43;;
64678;SDS011;51094;53.864;27.676;2024-02-21T10:12:06;5.20;;;5.10;;
64678;SDS011;51094;53.864;27.676;2024-02-21T10:14:44;5.35;;;5.25;;
64678;SDS011;51094;53.864;27.676;2024-02-21T10:17:17;5.25;;;5.15;;
64678;SDS011;51094;53.864;27.676;2024-02-21T10:19:49;5.22;;;5.13;;
64678;SDS011;51094;53.864;27.676;2024-02-21T10:22:18;4.90;;;4.80;;
64678;SDS011;51094;53.864;27.676;2024-02-21T10:24:47;5.20;;;5.10;;
64678;SDS011;51094;53.864;27.676;2024-02-21T10:27:14;5.35;;;5.25;;
64678;SDS011;51094;53.864;27.676;2024-02-21T10:29:43;5.15;;;5.05;;
64678;SDS011;51094;53.864;27.676;2024-02-21T10:32:20;5.80;;;5.70;;
64678;SDS011;51094;53.864;27.676;2024-02-21T10:34:49;6.20;;;6.10;;
64678;SDS011;51094;53.864;27.676;2024-02-21T10:37:26;5.80;;;5.70;;
64678;SDS011;51094;53.864;27.676;2024-02-21T10:39:58;6.90;;;6.70;;
64678;SDS011;51094;53.864;27.676;2024-02-21T10:42:27;5.97;;;5.88;;
64678;SDS011;51094;53.864;27.676;2024-02-21T10:45:00;6.10;;;5.90;;
64678;SDS011;51094;53.864;27.676;2024-02-21T10:47:31;6.00;;;5.90;;
64678;SDS011;51094;53.864;27.676;2024-02-21T10:50:02;6.35;;;6.15;;
64678;SDS011;51094;53.864;27.676;2024-02-21T10:55:25;6.20;;;6.10;;
64678;SDS011;51094;53.864;27.676;2024-02-21T10:58:09;6.40;;;6.22;;
64678;SDS011;51094;53.864;27.676;2024-02-21T11:00:46;7.07;;;6.88;;
64678;SDS011;51094;53.864;27.676;2024-02-21T11:03:16;6.78;;;6.68;;
64678;SDS011;51094;53.864;27.676;2024-02-21T11:05:43;6.13;;;6.03;;
64678;SDS011;51094;53.864;27.676;2024-02-21T11:08:17;6.20;;;6.03;;
64678;SDS011;51094;53.864;27.676;2024-02-21T11:10:47;6.07;;;5.93;;
64678;SDS011;51094;53.864;27.676;2024-02-21T11:13:14;7.18;;;6.97;;
64678;SDS011;51094;53.864;27.676;2024-02-21T11:15:41;7.20;;;7.00;;
64678;SDS011;51094;53.864;27.676;2024-02-21T11:18:23;6.28;;;6.07;;
64678;SDS011;51094;53.864;27.676;2024-02-21T11:20:50;5.35;;;5.25;;
64678;SDS011;51094;53.864;27.676;2024-02-21T11:23:26;6.25;;;6.15;;
64678;SDS011;51094;53.864;27.676;2024-02-21T11:26:09;5.72;;;5.63;;
64678;SDS011;51094;53.864;27.676;2024-02-21T11:28:39;6.45;;;6.25;;
64678;SDS011;51094;53.864;27.676;2024-02-21T11:31:14;6.93;;;6.72;;
64678;SDS011;51094;53.864;27.676;2024-02-21T11:33:46;6.72;;;6.53;;
64678;SDS011;51094;53.864;27.676;2024-02-21T11:36:26;6.72;;;6.63;;
64678;SDS011;51094;53.864;27.676;2024-02-21T11:38:54;6.85;;;6.75;;
64678;SDS011;51094;53.864;27.676;2024-02-21T11:41:21;6.20;;;6.07;;
64678;SDS011;51094;53.864;27.676;2024-02-21T11:43:48;6.05;;;5.95;;
64678;SDS011;51094;53.864;27.676;2024-02-21T11:46:17;5.32;;;5.22;;
64678;SDS011;51094;53.864;27.676;2024-02-21T11:48:45;5.82;;;5.72;;
64678;SDS011;51094;53.864;27.676;2024-02-21T11:51:26;5.10;;;5.00;;
64678;SDS011;51094;53.864;27.676;2024-02-21T11:54:04;5.13;;;5.03;;
64678;SDS011;51094;53.864;27.676;2024-02-21T11:56:39;4.60;;;4.50;;
64678;SDS011;51094;53.864;27.676;2024-02-21T11:59:06;4.50;;;4.40;;
64678;SDS011;51094;53.864;27.676;2024-02-21T12:01:33;4.75;;;4.65;;
64678;SDS011;51094;53.864;27.676;2024-02-21T12:04:03;3.90;;;3.80;;
64678;SDS011;51094;53.864;27.676;2024-02-21T12:06:32;3.80;;;3.70;;
64678;SDS011;51094;53.864;27.676;2024-02-21T12:09:01;4.00;;;3.90;;
64678;SDS011;51094;53.864;27.676;2024-02-21T12:11:28;3.75;;;3.65;;
64678;SDS011;51094;53.864;27.676;2024-02-21T12:13:59;3.30;;;3.25;;
64678;SDS011;51094;53.864;27.676;2024-02-21T12:16:32;3.50;;;3.40;;
64678;SDS011;51094;53.864;27.676;2024-02-21T12:18:59;3.38;;;3.38;;
64678;SDS011;51094;53.864;27.676;2024-02-21T12:21:31;3.42;;;3.40;;
64678;SDS011;51094;53.864;27.676;2024-02-21T12:24:00;3.47;;;3.37;;
64678;SDS011;51094;53.864;27.676;2024-02-21T12:26:27;3.50;;;3.40;;
64678;SDS011;51094;53.864;27.676;2024-02-21T12:28:59;3.50;;;3.50;;
64678;SDS011;51094;53.864;27.676;2024-02-21T12:31:29;3.50;;;3.45;;
64678;SDS011;51094;53.864;27.676;2024-02-21T12:33:56;3.75;;;3.67;;
64678;SDS011;51094;53.864;27.676;2024-02-21T12:36:24;3.70;;;3.60;;
64678;SDS011;51094;53.864;27.676;2024-02-21T12:38:51;4.25;;;4.15;;
64678;SDS011;51094;53.864;27.676;2024-02-21T12:41:18;3.80;;;3.70;;
64678;SDS011;51094;53.864;27.676;2024-02-21T12:43:45;3.58;;;3.58;;
64678;SDS011;51094;53.864;27.676;2024-02-21T12:46:14;4.28;;;4.18;;
64678;SDS011;51094;53.864;27.676;2024-02-21T12:48:41;4.00;;;3.90;;
64678;SDS011;51094;53.864;27.676;2024-02-21T12:51:08;4.30;;;4.20;;
64678;SDS011;51094;53.864;27.676;2024-02-21T12:53:41;3.38;;;3.38;;
64678;SDS011;51094;53.864;27.676;2024-02-21T12:56:13;4.33;;;4.23;;
64678;SDS011;51094;53.864;27.676;2024-02-21T12:58:40;3.65;;;3.65;;
64678;SDS011;51094;53.864;27.676;2024-02-21T13:01:10;3.85;;;3.75;;
64678;SDS011;51094;53.864;27.676;2024-02-21T13:03:39;3.55;;;3.55;;
64678;SDS011;51094;53.864;27.676;2024-02-21T13:06:08;3.35;;;3.35;;
64678;SDS011;51094;53.864;27.676;2024-02-21T13:08:41;3.80;;;3.70;;
64678;SDS011;51094;53.864;27.676;2024-02-21T13:11:13;3.33;;;3.33;;
64678;SDS011;51094;53.864;27.676;2024-02-21T13:13:40;3.95;;;3.85;;
64678;SDS011;51094;53.864;27.676;2024-02-21T13:16:09;4.40;;;4.30;;
64678;SDS011;51094;53.864;27.676;2024-02-21T13:18:37;4.35;;;4.25;;
64678;SDS011;51094;53.864;27.676;2024-02-21T13:21:09;4.55;;;4.45;;
64678;SDS011;51094;53.864;27.676;2024-02-21T13:23:44;4.57;;;4.47;;
64678;SDS011;51094;53.864;27.676;2024-02-21T13:26:16;4.13;;;4.03;;
64678;SDS011;51094;53.864;27.676;2024-02-21T13:31:16;4.30;;;4.20;;
64678;SDS011;51094;53.864;27.676;2024-02-21T13:33:49;4.00;;;3.90;;
64678;SDS011;51094;53.864;27.676;2024-02-21T13:36:16;4.18;;;4.07;;
64678;SDS011;51094;53.864;27.676;2024-02-21T13:41:15;3.70;;;3.60;;
64678;SDS011;51094;53.864;27.676;2024-02-21T13:43:42;3.83;;;3.72;;
64678;SDS011;51094;53.864;27.676;2024-02-21T13:46:17;3.25;;;3.15;;
64678;SDS011;51094;53.864;27.676;2024-02-21T13:48:46;3.53;;;3.50;;
64678;SDS011;51094;53.864;27.676;2024-02-21T13:51:16;3.65;;;3.60;;
64678;SDS011;51094;53.864;27.676;2024-02-21T13:53:53;3.42;;;3.40;;
64678;SDS011;51094;53.864;27.676;2024-02-21T13:56:22;3.25;;;3.25;;
64678;SDS011;51094;53.864;27.676;2024-02-21T13:58:58;3.20;;;3.20;;
64678;SDS011;51094;53.864;27.676;2024-02-21T14:01:27;3.80;;;3.80;;
64678;SDS011;51094;53.864;27.676;2024-02-21T14:03:59;3.25;;;3.25;;
64678;SDS011;51094;53.864;27.676;2024-02-21T14:06:26;3.67;;;3.58;;
64678;SDS011;51094;53.864;27.676;2024-02-21T14:09:01;3.13;;;3.10;;
64678;SDS011;51094;53.864;27.676;2024-02-21T14:11:28;3.45;;;3.35;;
64678;SDS011;51094;53.864;27.676;2024-02-21T14:13:58;3.42;;;3.42;;
64678;SDS011;51094;53.864;27.676;2024-02-21T14:16:28;2.83;;;2.80;;
64678;SDS011;51094;53.864;27.676;2024-02-21T14:18:58;3.22;;;3.22;;
64678;SDS011;51094;53.864;27.676;2024-02-21T14:21:26;3.75;;;3.65;;
64678;SDS011;51094;53.864;27.676;2024-02-21T14:23:53;3.42;;;3.33;;
64678;SDS011;51094;53.864;27.676;2024-02-21T14:26:26;3.50;;;3.40;;
64678;SDS011;51094;53.864;27.676;2024-02-21T14:28:59;3.17;;;3.17;;
64678;SDS011;51094;53.864;27.676;2024-02-21T14:31:31;3.25;;;3.22;;
64678;SDS011;51094;53.864;27.676;2024-02-21T14:34:00;3.75;;;3.65;;
64678;SDS011;51094;53.864;27.676;2024-02-21T14:36:30;3.50;;;3.40;;
64678;SDS011;51094;53.864;27.676;2024-02-21T14:39:01;3.58;;;3.58;;
64678;SDS011;51094;53.864;27.676;2024-02-21T14:41:32;3.83;;;3.72;;
64678;SDS011;51094;53.864;27.676;2024-02-21T14:44:06;3.05;;;3.05;;
64678;SDS011;51094;53.864;27.676;2024-02-21T14:46:36;3.13;;;3.13;;
64678;SDS011;51094;53.864;27.676;2024-02-21T14:49:06;3.47;;;3.40;;
64678;SDS011;51094;53.864;27.676;2024-02-21T14:51:36;4.20;;;4.10;;
64678;SDS011;51094;53.864;27.676;2024-02-21T14:54:03;3.33;;;3.33;;
64678;SDS011;51094;53.864;27.676;2024-02-21T14:56:30;3.70;;;3.63;;
64678;SDS011;51094;53.864;27.676;2024-02-21T14:58:58;3.80;;;3.70;;